createdAt,value
2022-09-18T00:00:50.995Z,1000.390381
2022-09-18T00:01:51.075Z,1000.363892
2022-09-18T00:02:45.310Z,1000.380127
2022-09-18T00:03:45.424Z,1000.457336
2022-09-18T00:04:51.072Z,1000.406616
2022-09-18T00:05:49.321Z,1000.445129
2022-09-18T00:06:52.728Z,1000.384399
2022-09-18T00:07:48.052Z,1000.418762
2022-09-18T00:09:48.269Z,1000.487915
2022-09-18T00:10:44.167Z,1000.487915
2022-09-18T00:11:45.844Z,1000.374146
2022-09-18T00:12:41.505Z,1000.469666
2022-09-18T00:13:43.887Z,1000.469666
2022-09-18T00:14:40.309Z,1000.41687
2022-09-18T00:15:44.641Z,1000.512329
2022-09-18T00:16:47.147Z,1000.477661
2022-09-18T00:17:47.635Z,1000.384399
2022-09-18T00:18:49.372Z,1000.365967
2022-09-18T00:21:12.210Z,1000.365967
2022-09-18T00:21:52.895Z,1000.388184
2022-09-18T00:22:54.835Z,1000.323181
2022-09-18T00:24:51.980Z,1000.445129
2022-09-18T00:25:57.180Z,1000.455383
2022-09-18T00:26:55.705Z,1000.447205
2022-09-18T00:27:57.661Z,1000.459534
2022-09-18T00:29:53.502Z,1000.380127
2022-09-18T00:30:55.847Z,1000.380127
2022-09-18T00:31:55.180Z,1000.345459
2022-09-18T00:32:57.403Z,1000.355713
2022-09-18T00:34:53.590Z,1000.371948
2022-09-18T00:35:52.287Z,1000.321228
2022-09-18T00:36:49.068Z,1000.408569
2022-09-18T00:37:53.882Z,1000.392334
2022-09-18T00:39:50.358Z,1000.345459
2022-09-18T00:40:48.060Z,1000.361694
2022-09-18T00:41:49.151Z,1000.3172
2022-09-18T00:42:51.155Z,1000.274475
2022-09-18T00:43:49.305Z,1000.306946
2022-09-18T00:44:52.335Z,1000.371948
2022-09-18T00:45:49.482Z,1000.384399
2022-09-18T00:46:49.289Z,1000.325439
2022-09-18T00:47:51.244Z,1000.431152
2022-09-18T00:49:43.817Z,1000.34967
2022-09-18T00:50:48.638Z,1000.376099
2022-09-18T00:51:45.007Z,1000.392334
2022-09-18T00:52:48.006Z,1000.355713
2022-09-18T00:53:40.535Z,1000.35376
2022-09-18T00:55:37.763Z,1000.388184
2022-09-18T00:56:37.506Z,1000.441101
2022-09-18T00:57:33.588Z,1000.35376
2022-09-18T00:58:59.325Z,1000.396423
2022-09-18T01:00:43.877Z,1000.34967
2022-09-18T01:00:52.902Z,1000.34967
2022-09-18T01:01:49.489Z,1000.398438
2022-09-18T01:02:51.231Z,1000.461426
2022-09-18T01:03:50.512Z,1000.398438
2022-09-18T01:04:53.595Z,1000.402527
2022-09-18T01:05:46.301Z,1000.489868
2022-09-18T01:06:48.981Z,1000.420715
2022-09-18T01:07:46.942Z,1000.457336
2022-09-18T01:08:48.287Z,1000.475769
2022-09-18T01:09:51.089Z,1000.406616
2022-09-18T01:10:53.143Z,1000.434998
2022-09-18T01:11:48.467Z,1000.374146
2022-09-18T01:12:48.356Z,1000.428894
2022-09-18T01:13:51.155Z,1000.400635
2022-09-18T01:14:57.286Z,1000.418762
2022-09-18T01:15:57.588Z,1000.437195
2022-09-18T01:16:53.749Z,1000.514282
2022-09-18T01:17:56.812Z,1000.445129
2022-09-18T01:19:56.085Z,1000.443298
2022-09-18T01:20:49.129Z,1000.443298
2022-09-18T01:21:52.288Z,1000.477661
2022-09-18T01:22:48.650Z,1000.408569
2022-09-18T01:24:44.339Z,1000.457336
2022-09-18T01:25:43.155Z,1000.443298
2022-09-18T01:26:43.077Z,1000.461426
2022-09-18T01:27:43.416Z,1000.437195
2022-09-18T01:28:48.370Z,1000.479919
2022-09-18T01:30:41.602Z,1000.451233
2022-09-18T01:31:37.957Z,1000.41687
2022-09-18T01:32:41.023Z,1000.427002
2022-09-18T01:34:04.778Z,1000.406616
2022-09-18T01:34:47.931Z,1000.359863
2022-09-18T01:35:46.916Z,1000.365967
2022-09-18T01:36:48.624Z,1000.384033
2022-09-18T01:37:45.733Z,1000.384033
2022-09-18T01:38:54.707Z,1000.394226
2022-09-18T01:39:52.708Z,1000.325134
2022-09-18T01:40:48.403Z,1000.388184
2022-09-18T01:41:54.133Z,1000.398438
2022-09-18T01:42:52.105Z,1000.347717
2022-09-18T01:43:53.700Z,1000.294861
2022-09-18T01:44:52.919Z,1000.28656
2022-09-18T01:45:53.287Z,1000.339478
2022-09-18T01:46:52.522Z,1000.296692
2022-09-18T01:47:52.577Z,1000.296692
2022-09-18T01:48:48.944Z,1000.321228
2022-09-18T01:49:51.530Z,1000.304993
2022-09-18T01:50:46.717Z,1000.312988
2022-09-18T01:51:52.743Z,1000.276428
2022-09-18T01:52:48.331Z,1000.233765
2022-09-18T01:54:55.862Z,1000.215576
2022-09-18T01:55:51.616Z,1000.207336
2022-09-18T01:56:52.827Z,1000.205322
2022-09-18T01:57:49.743Z,1000.284668
2022-09-18T01:59:49.230Z,1000.274475
2022-09-18T02:00:50.231Z,1000.266235
2022-09-18T02:01:48.446Z,1000.150208
2022-09-18T02:02:53.913Z,1000.18689
2022-09-18T02:04:53.683Z,1000.231812
2022-09-18T02:06:39.617Z,1000.298645
2022-09-18T02:07:20.021Z,1000.192566
2022-09-18T02:08:18.933Z,1000.117371
2022-09-18T02:10:20.400Z,1000.135559
2022-09-18T02:11:19.387Z,1000.147949
2022-09-18T02:12:13.800Z,1000.1521
2022-09-18T02:13:12.890Z,1000.101196
2022-09-18T02:14:09.907Z,1000.198914
2022-09-18T02:15:12.477Z,1000.158203
2022-09-18T02:16:08.968Z,1000.197021
2022-09-18T02:17:17.569Z,1000.19104
2022-09-18T02:18:10.677Z,1000.129822
2022-09-18T02:19:12.730Z,1000.180786
2022-09-18T02:20:17.732Z,1000.19104
2022-09-18T02:21:17.230Z,1000.207275
2022-09-18T02:22:12.678Z,1000.262024
2022-09-18T02:23:16.360Z,1000.201233
2022-09-18T02:25:11.006Z,1000.229553
2022-09-18T02:26:08.966Z,1000.248047
2022-09-18T02:27:10.781Z,1000.223511
2022-09-18T02:28:14.189Z,1000.239746
2022-09-18T02:29:23.683Z,1000.245789
2022-09-18T02:30:15.386Z,1000.18689
2022-09-18T02:31:20.166Z,1000.152527
2022-09-18T02:32:22.469Z,1000.117798
2022-09-18T02:33:21.458Z,1000.020325
2022-09-18T02:34:20.484Z,999.9938965
2022-09-18T02:35:15.220Z,1000.014221
2022-09-18T02:36:17.078Z,1000.058899
2022-09-18T02:37:16.134Z,1000.022217
2022-09-18T02:38:15.827Z,1000.001892
2022-09-18T02:40:16.866Z,999.977356
2022-09-18T02:41:12.177Z,999.9855347
2022-09-18T02:42:15.432Z,1000.030151
2022-09-18T02:43:10.673Z,1000.022217
2022-09-18T02:44:11.567Z,1000.054688
2022-09-18T02:45:08.003Z,1000.150208
2022-09-18T02:46:11.520Z,1000.117737
2022-09-18T02:47:07.696Z,1000.223511
2022-09-18T02:48:12.128Z,1000.127991
2022-09-18T02:50:03.550Z,1000.081116
2022-09-18T02:50:57.896Z,999.9753418
2022-09-18T02:52:00.589Z,1000.00177
2022-09-18T02:53:04.097Z,999.9590454
2022-09-18T02:54:58.621Z,1000.00177
2022-09-18T02:56:44.591Z,1000.054382
2022-09-18T02:57:23.925Z,999.993103
2022-09-18T02:58:25.313Z,1000.01532
2022-09-18T03:00:24.692Z,1000.025574
2022-09-18T03:01:25.644Z,1000.101074
2022-09-18T03:02:25.288Z,1000.097046
2022-09-18T03:03:26.835Z,1000.054382
2022-09-18T03:05:22.261Z,1000.038147
2022-09-18T03:06:16.558Z,999.979248
2022-09-18T03:07:23.400Z,999.9467163
2022-09-18T03:08:18.797Z,999.930481
2022-09-18T03:10:15.715Z,1000.107483
2022-09-18T03:11:16.780Z,1000.05658
2022-09-18T03:12:14.786Z,999.8900146
2022-09-18T03:13:11.371Z,999.9082031
2022-09-18T03:15:09.649Z,999.9428711
2022-09-18T03:16:12.558Z,999.9104614
2022-09-18T03:17:07.973Z,999.9163818
2022-09-18T03:18:10.725Z,999.9163818
2022-09-18T03:20:04.906Z,999.9833374
2022-09-18T03:21:01.925Z,999.9753418
2022-09-18T03:22:01.026Z,999.9326782
2022-09-18T03:22:58.870Z,999.8552856
2022-09-18T03:24:53.772Z,999.8900146
2022-09-18T03:26:02.919Z,999.8900146
2022-09-18T03:27:36.057Z,999.9726563
2022-09-18T03:29:54.859Z,999.8887329
2022-09-18T03:30:35.480Z,999.8616943
2022-09-18T03:31:33.793Z,999.8087769
2022-09-18T03:32:32.913Z,999.9291382
2022-09-18T03:33:28.049Z,999.8118896
2022-09-18T03:34:28.113Z,999.8121338
2022-09-18T03:35:29.833Z,999.8450928
2022-09-18T03:36:23.562Z,999.8206177
2022-09-18T03:37:23.384Z,999.9491577
2022-09-18T03:38:17.083Z,999.8657837
2022-09-18T03:39:18.675Z,999.8986816
2022-09-18T03:40:12.794Z,999.8945923
2022-09-18T03:41:11.725Z,999.8968506
2022-09-18T03:42:06.061Z,999.8746338
2022-09-18T03:43:07.596Z,999.913269
2022-09-18T03:44:57.651Z,999.9257202
2022-09-18T03:45:58.521Z,999.9136963
2022-09-18T03:46:59.426Z,999.9522705
2022-09-18T03:47:50.319Z,999.9035645
2022-09-18T03:48:51.354Z,999.8691406
2022-09-18T03:50:42.992Z,999.8973999
2022-09-18T03:51:41.926Z,999.992981
2022-09-18T03:52:36.390Z,999.9238892
2022-09-18T03:53:34.368Z,999.9726563
2022-09-18T03:54:28.728Z,999.8325195
2022-09-18T03:55:24.152Z,999.9220581
2022-09-18T03:56:25.126Z,999.8204956
2022-09-18T03:57:21.500Z,999.838623
2022-09-18T03:58:29.048Z,999.8204956
2022-09-18T04:00:22.312Z,999.7717285
2022-09-18T04:01:21.694Z,999.8590698
2022-09-18T04:02:22.050Z,999.8103027
2022-09-18T04:03:13.340Z,999.8205566
2022-09-18T04:05:12.580Z,999.8998413
2022-09-18T04:06:12.257Z,999.8673706
2022-09-18T04:07:10.075Z,999.9202271
2022-09-18T04:08:33.629Z,999.8510742
2022-09-18T04:10:16.816Z,999.8918457
2022-09-18T04:11:15.461Z,999.8654785
2022-09-18T04:12:15.886Z,999.7982788
2022-09-18T04:13:11.279Z,999.90625
2022-09-18T04:15:13.619Z,999.871582
2022-09-18T04:16:14.773Z,999.8900146
2022-09-18T04:17:10.411Z,999.8390503
2022-09-18T04:18:15.699Z,999.8654785
2022-09-18T04:19:18.814Z,999.8024902
2022-09-18T04:20:21.174Z,999.7781982
2022-09-18T04:21:17.805Z,999.7679443
2022-09-18T04:22:18.118Z,999.7862549
2022-09-18T04:23:16.670Z,999.7801514
2022-09-18T04:24:18.510Z,999.7435303
2022-09-18T04:25:17.519Z,999.8065796
2022-09-18T04:26:23.221Z,999.8432617
2022-09-18T04:27:25.380Z,999.8270264
2022-09-18T04:28:19.545Z,999.7801514
2022-09-18T04:29:21.707Z,999.8311157
2022-09-18T04:30:16.117Z,999.7944336
2022-09-18T04:31:23.013Z,999.7578125
2022-09-18T04:32:13.684Z,999.7658081
2022-09-18T04:33:11.294Z,999.7536621
2022-09-18T04:35:19.319Z,999.763916
2022-09-18T04:36:21.681Z,999.7313843
2022-09-18T04:37:19.355Z,999.7842407
2022-09-18T04:38:19.010Z,999.8024902
2022-09-18T04:40:18.084Z,999.8616943
2022-09-18T04:41:23.859Z,999.7050171
2022-09-18T04:42:17.573Z,999.8190918
2022-09-18T04:43:26.859Z,999.8190918
2022-09-18T04:45:20.361Z,999.845459
2022-09-18T04:46:22.237Z,999.892334
2022-09-18T04:48:08.280Z,999.8919678
2022-09-18T04:48:49.932Z,999.8673706
2022-09-18T04:49:50.089Z,999.8612671
2022-09-18T04:50:49.909Z,999.8552246
2022-09-18T04:51:45.263Z,999.8918457
2022-09-18T04:52:45.808Z,999.8329468
2022-09-18T04:53:40.974Z,999.8900146
2022-09-18T04:55:36.695Z,999.7963867
2022-09-18T04:56:35.589Z,999.8353271
2022-09-18T04:57:32.668Z,999.7926636
2022-09-18T04:58:33.574Z,999.7703247
2022-09-18T05:00:32.405Z,999.8515625
2022-09-18T05:01:30.569Z,999.8273315
2022-09-18T05:02:25.845Z,999.7114258
2022-09-18T05:03:31.482Z,999.7662354
2022-09-18T05:04:27.000Z,999.7662354
2022-09-18T05:05:28.674Z,999.8477173
2022-09-18T05:06:24.882Z,999.7865601
2022-09-18T05:07:27.178Z,999.845459
2022-09-18T05:08:19.631Z,999.8435669
2022-09-18T05:09:24.053Z,999.8231201
2022-09-18T05:10:22.107Z,999.7518921
2022-09-18T05:11:27.965Z,999.7703247
2022-09-18T05:12:23.788Z,999.6989746
2022-09-18T05:13:27.273Z,999.7620239
2022-09-18T05:14:20.234Z,999.6807861
2022-09-18T05:15:24.370Z,999.7276611
2022-09-18T05:16:19.666Z,999.737793
2022-09-18T05:17:23.874Z,999.6585693
2022-09-18T05:18:15.947Z,999.7092285
2022-09-18T05:19:17.894Z,999.7438965
2022-09-18T05:20:10.968Z,999.7620239
2022-09-18T05:21:11.177Z,999.7540894
2022-09-18T05:22:10.273Z,999.7276611
2022-09-18T05:23:08.442Z,999.737793
2022-09-18T05:24:12.512Z,999.7295532
2022-09-18T05:25:07.539Z,999.8353271
2022-09-18T05:26:09.387Z,999.7318115
2022-09-18T05:27:03.338Z,999.8557129
2022-09-18T05:28:08.054Z,999.8820801
2022-09-18T05:30:26.008Z,999.7642212
2022-09-18T05:31:16.880Z,999.8231201
2022-09-18T05:32:18.928Z,999.8718872
2022-09-18T05:33:20.199Z,999.8209229
2022-09-18T05:35:19.267Z,999.8699951
2022-09-18T05:36:15.692Z,999.9331055
2022-09-18T05:37:19.080Z,999.845459
2022-09-18T05:38:20.414Z,999.8945313
2022-09-18T05:39:17.947Z,999.9349976
2022-09-18T05:40:16.774Z,999.8742065
2022-09-18T05:41:13.448Z,999.8579712
2022-09-18T05:42:17.737Z,999.8394775
2022-09-18T05:43:15.903Z,999.8477173
2022-09-18T05:45:11.961Z,999.9432983
2022-09-18T05:46:12.424Z,999.8983765
2022-09-18T05:47:07.959Z,999.8983765
2022-09-18T05:48:09.863Z,999.9248657
2022-09-18T05:49:05.227Z,999.8983765
2022-09-18T05:50:05.603Z,999.7662354
2022-09-18T05:51:02.964Z,999.7948608
2022-09-18T05:52:02.747Z,999.7785645
2022-09-18T05:53:00.842Z,999.8477173
2022-09-18T05:54:58.412Z,999.7235718
2022-09-18T05:56:01.519Z,999.7744751
2022-09-18T05:56:54.339Z,999.7133789
2022-09-18T05:57:56.909Z,999.7662354
2022-09-18T05:58:51.151Z,999.6951294
2022-09-18T06:00:03.237Z,999.8088989
2022-09-18T06:00:58.789Z,999.8292236
2022-09-18T06:01:59.667Z,999.8742065
2022-09-18T06:02:54.627Z,999.8579712
2022-09-18T06:04:51.804Z,999.7948608
2022-09-18T06:05:54.239Z,999.8718872
2022-09-18T06:06:49.833Z,999.7926636
2022-09-18T06:07:49.671Z,999.8110962
2022-09-18T06:08:47.826Z,999.7053223
2022-09-18T06:09:51.927Z,999.7133789
2022-09-18T06:10:47.146Z,999.6951294
2022-09-18T06:11:49.563Z,999.737793
2022-09-18T06:12:46.821Z,999.7722778
2022-09-18T06:13:50.045Z,999.7620239
2022-09-18T06:15:46.366Z,999.7824097
2022-09-18T06:17:33.331Z,999.8431396
2022-09-18T06:18:13.953Z,999.7879639
2022-09-18T06:20:14.115Z,999.8426514
2022-09-18T06:21:08.968Z,999.8468628
2022-09-18T06:22:09.369Z,999.8673706
2022-09-18T06:23:04.881Z,999.8449707
2022-09-18T06:24:05.606Z,999.8390503
2022-09-18T06:25:01.039Z,999.8937378
2022-09-18T06:26:00.341Z,999.930481
2022-09-18T06:26:54.750Z,999.8371582
2022-09-18T06:27:56.793Z,999.8289185
2022-09-18T06:28:48.870Z,999.8900146
2022-09-18T06:29:48.311Z,999.8798218
2022-09-18T06:30:43.501Z,999.8696289
2022-09-18T06:31:43.394Z,999.8510742
2022-09-18T06:32:37.743Z,999.8937378
2022-09-18T06:33:38.222Z,999.8510742
2022-09-18T06:34:38.520Z,999.8654785
2022-09-18T06:34:38.972Z,999.8654785
2022-09-18T06:35:35.653Z,999.8023682
2022-09-18T06:36:31.926Z,999.87146
2022-09-18T06:37:33.361Z,999.8449707
2022-09-18T06:38:27.574Z,999.8612671
2022-09-18T06:39:28.221Z,999.8326416
2022-09-18T06:40:24.798Z,999.885498
2022-09-18T06:41:26.170Z,999.9243774
2022-09-18T06:42:21.364Z,999.9304199
2022-09-18T06:43:26.380Z,999.8956299
2022-09-18T06:44:18.197Z,999.8590698
2022-09-18T06:45:17.471Z,999.8692017
2022-09-18T06:46:13.006Z,999.9039307
2022-09-18T06:47:11.382Z,999.9568481
2022-09-18T06:48:09.524Z,999.9934082
2022-09-18T06:49:04.516Z,1000.046387
2022-09-18T06:50:07.388Z,999.967041
2022-09-18T06:51:01.745Z,999.9851685
2022-09-18T06:52:03.575Z,999.8692017
2022-09-18T06:52:56.972Z,999.885498
2022-09-18T06:53:58.134Z,999.8571167
2022-09-18T06:54:54.026Z,999.8548584
2022-09-18T06:55:57.683Z,999.8793945
2022-09-18T06:56:57.022Z,999.8895264
2022-09-18T06:57:49.054Z,999.8997803
2022-09-18T06:58:50.349Z,999.873291
2022-09-18T07:00:44.993Z,999.9057617
2022-09-18T07:01:39.885Z,999.9238892
2022-09-18T07:03:15.733Z,999.8505249
2022-09-18T07:05:11.015Z,999.8355713
2022-09-18T07:05:47.569Z,999.7983398
2022-09-18T07:06:46.581Z,999.9244385
2022-09-18T07:07:47.163Z,999.8470459
2022-09-18T07:08:43.439Z,999.8859253
2022-09-18T07:10:42.612Z,999.8253174
2022-09-18T07:11:44.584Z,999.8926392
2022-09-18T07:12:43.505Z,999.8579712
2022-09-18T07:13:47.355Z,999.8704834
2022-09-18T07:15:42.994Z,999.9354858
2022-09-18T07:16:25.558Z,999.8236084
2022-09-18T07:17:24.385Z,999.9030762
2022-09-18T07:17:26.634Z,999.9030762
2022-09-18T07:18:21.809Z,999.8765869
2022-09-18T07:20:21.322Z,999.7849731
2022-09-18T07:21:14.922Z,999.8987427
2022-09-18T07:22:16.961Z,999.8134155
2022-09-18T07:23:15.030Z,999.8156738
2022-09-18T07:25:12.881Z,999.8705444
2022-09-18T07:26:15.207Z,999.7832642
2022-09-18T07:27:15.905Z,999.7750244
2022-09-18T07:28:17.782Z,999.7220459
2022-09-18T07:29:16.069Z,999.7201538
2022-09-18T07:30:17.290Z,999.7647705
2022-09-18T07:31:13.642Z,999.7567749
2022-09-18T07:32:18.087Z,999.770752
2022-09-18T07:33:12.071Z,999.772583
2022-09-18T07:35:09.778Z,999.6486206
2022-09-18T07:36:13.618Z,999.7623291
2022-09-18T07:37:11.121Z,999.7990723
2022-09-18T07:38:12.490Z,999.723877
2022-09-18T07:40:10.500Z,999.7628174
2022-09-18T07:41:07.230Z,999.8339233
2022-09-18T07:42:10.792Z,999.7201538
2022-09-18T07:43:07.779Z,999.7912598
2022-09-18T07:44:07.900Z,999.7201538
2022-09-18T07:45:05.023Z,999.711853
2022-09-18T07:46:07.065Z,999.7545166
2022-09-18T07:47:05.011Z,999.6834106
2022-09-18T07:48:05.626Z,999.6408081
2022-09-18T07:49:02.721Z,999.6812744
2022-09-18T07:50:04.561Z,999.6732788
2022-09-18T07:51:00.915Z,999.6101685
2022-09-18T07:52:02.031Z,999.5549927
2022-09-18T07:52:59.189Z,999.6240845
2022-09-18T07:54:58.053Z,999.6624756
2022-09-18T07:55:59.355Z,999.5914307
2022-09-18T07:57:22.798Z,999.6179199
2022-09-18T07:58:02.810Z,999.6461182
2022-09-18T07:59:00.427Z,999.5625
2022-09-18T08:00:02.534Z,999.6436157
2022-09-18T08:00:57.906Z,999.5943604
2022-09-18T08:01:57.890Z,999.5497437
2022-09-18T08:02:54.619Z,999.6394043
2022-09-18T08:03:55.069Z,999.6394043
2022-09-18T08:05:51.161Z,999.5967407
2022-09-18T08:06:46.574Z,999.6863403
2022-09-18T08:07:46.972Z,999.6413574
2022-09-18T08:08:42.235Z,999.6231079
2022-09-18T08:09:46.128Z,999.5679932
2022-09-18T08:10:39.500Z,999.6413574
2022-09-18T08:11:42.784Z,999.6575928
2022-09-18T08:12:35.969Z,999.6188965
2022-09-18T08:13:36.073Z,999.6532593
2022-09-18T08:14:34.265Z,999.6146851
2022-09-18T08:15:29.649Z,999.6676025
2022-09-18T08:16:32.521Z,999.6063843
2022-09-18T08:17:27.913Z,999.7020264
2022-09-18T08:18:31.852Z,999.5901489
2022-09-18T08:20:27.675Z,999.6226807
2022-09-18T08:21:21.917Z,999.6206055
2022-09-18T08:22:19.163Z,999.673584
2022-09-18T08:23:18.633Z,999.6286011
2022-09-18T08:24:13.813Z,999.6712646
2022-09-18T08:25:14.212Z,999.6266479
2022-09-18T08:26:09.589Z,999.6369019
2022-09-18T08:27:15.277Z,999.6795044
2022-09-18T08:28:08.906Z,999.6875
2022-09-18T08:30:03.277Z,999.828125
2022-09-18T08:31:02.243Z,999.8648682
2022-09-18T08:32:05.484Z,999.8058472
2022-09-18T08:32:09.841Z,999.8058472
2022-09-18T08:32:59.043Z,999.8220825
2022-09-18T08:35:00.016Z,999.7728882
2022-09-18T08:35:52.695Z,999.6140747
2022-09-18T08:36:55.667Z,999.7077637
2022-09-18T08:37:48.222Z,999.7421875
2022-09-18T08:38:46.580Z,999.7686157
2022-09-18T08:41:16.054Z,999.7564087
2022-09-18T08:41:55.823Z,999.7623291
2022-09-18T08:42:56.551Z,999.6601563
2022-09-18T08:43:51.859Z,999.7028809
2022-09-18T08:45:47.144Z,999.7376709
2022-09-18T08:46:45.832Z,999.7478027
2022-09-18T08:47:43.888Z,999.739624
2022-09-18T08:48:40.071Z,999.725708
2022-09-18T08:49:40.432Z,999.7335815
2022-09-18T08:50:38.582Z,999.6829834
2022-09-18T08:51:38.079Z,999.7011719
2022-09-18T08:52:31.459Z,999.7703247
2022-09-18T08:53:34.203Z,999.796814
2022-09-18T08:54:26.651Z,999.6992188
2022-09-18T08:55:26.237Z,999.7072144
2022-09-18T08:56:22.946Z,999.8496704
2022-09-18T08:57:23.640Z,999.7114258
2022-09-18T08:58:18.716Z,999.7114258
2022-09-18T09:00:13.108Z,999.6729736
2022-09-18T09:01:13.122Z,999.6607666
2022-09-18T09:02:08.387Z,999.6710205
2022-09-18T09:03:08.058Z,999.5466309
2022-09-18T09:04:04.214Z,999.6115723
2022-09-18T09:05:04.735Z,999.5764771
2022-09-18T09:06:00.024Z,999.5619507
2022-09-18T09:07:02.785Z,999.5516968
2022-09-18T09:07:55.453Z,999.5331421
2022-09-18T09:08:57.868Z,999.5493774
2022-09-18T09:10:53.262Z,999.5758667
2022-09-18T09:12:55.457Z,999.4960938
2022-09-18T09:13:36.986Z,999.4365845
2022-09-18T09:14:55.993Z,999.477478
2022-09-18T09:14:56.616Z,999.477478
2022-09-18T09:14:57.266Z,999.477478
2022-09-18T09:15:37.661Z,999.3795166
2022-09-18T09:16:33.786Z,999.4629517
2022-09-18T09:17:30.873Z,999.4159546
2022-09-18T09:18:31.848Z,999.3768921
2022-09-18T09:19:27.045Z,999.3443604
2022-09-18T09:20:26.940Z,999.3629761
2022-09-18T09:21:21.624Z,999.3914185
2022-09-18T09:22:21.370Z,999.3407593
2022-09-18T09:23:16.782Z,999.3693237
2022-09-18T09:25:12.251Z,999.2800293
2022-09-18T09:26:13.437Z,999.4040527
2022-09-18T09:27:08.697Z,999.3348999
2022-09-18T09:28:11.381Z,999.3637695
2022-09-18T09:28:16.512Z,999.3637695
2022-09-18T09:30:04.314Z,999.21875
2022-09-18T09:31:06.323Z,999.3143921
2022-09-18T09:31:58.982Z,999.3206177
2022-09-18T09:33:02.348Z,999.3206177
2022-09-18T09:33:55.641Z,999.4000854
2022-09-18T09:35:50.853Z,999.381897
2022-09-18T09:36:54.877Z,999.3329468
2022-09-18T09:37:49.041Z,999.2597046
2022-09-18T09:38:52.241Z,999.3063965
2022-09-18T09:40:45.624Z,999.2879639
2022-09-18T09:41:41.859Z,999.383606
2022-09-18T09:42:42.447Z,999.3735962
2022-09-18T09:43:41.087Z,999.3226318
2022-09-18T09:45:40.981Z,999.3289795
2022-09-18T09:46:36.488Z,999.3415527
2022-09-18T09:47:41.389Z,999.3965454
2022-09-18T09:48:36.065Z,999.4067383
2022-09-18T09:51:15.557Z,999.2759399
2022-09-18T09:52:41.143Z,999.2689209
2022-09-18T09:53:18.004Z,999.3579102
2022-09-18T09:55:16.603Z,999.3293457
2022-09-18T09:56:14.769Z,999.1930542
2022-09-18T09:57:15.125Z,999.2076416
2022-09-18T09:58:11.669Z,999.2282104
2022-09-18T10:00:04.767Z,999.2510986
2022-09-18T10:01:04.126Z,999.2104492
2022-09-18T10:02:02.083Z,999.2736206
2022-09-18T10:02:57.797Z,999.2471924
2022-09-18T10:03:57.621Z,999.3289185
2022-09-18T10:04:52.010Z,999.2146606
2022-09-18T10:05:53.763Z,999.2717285
2022-09-18T10:06:51.003Z,999.2084351
2022-09-18T10:07:48.765Z,999.2372437
2022-09-18T10:08:48.872Z,999.1922607
2022-09-18T10:09:41.318Z,999.253418
2022-09-18T10:10:43.142Z,999.2084351
2022-09-18T10:11:35.321Z,999.1495361
2022-09-18T10:12:42.228Z,999.1314087
2022-09-18T10:13:32.189Z,999.1843872
2022-09-18T10:14:26.731Z,999.1617432
2022-09-18T10:15:29.043Z,999.2332764
2022-09-18T10:16:21.590Z,999.2270508
2022-09-18T10:17:21.879Z,999.21875
2022-09-18T10:18:17.274Z,999.1863403
2022-09-18T10:20:15.492Z,999.1863403
2022-09-18T10:21:09.888Z,999.2333374
2022-09-18T10:22:13.493Z,999.2495117
2022-09-18T10:23:05.559Z,999.2885742
2022-09-18T10:25:04.497Z,999.3945313
2022-09-18T10:26:04.122Z,999.3170166
2022-09-18T10:27:07.300Z,999.3110962
2022-09-18T10:27:59.988Z,999.2684326
2022-09-18T10:29:02.343Z,999.4272461
2022-09-18T10:29:54.224Z,999.3560791
2022-09-18T10:30:56.210Z,999.366394
2022-09-18T10:31:49.444Z,999.3237305
2022-09-18T10:33:30.198Z,999.2415771
2022-09-18T10:35:48.656Z,999.2768555
2022-09-18T10:36:30.149Z,999.3417358
2022-09-18T10:37:28.264Z,999.3071899
2022-09-18T10:38:28.794Z,999.2910156
2022-09-18T10:40:25.526Z,999.4032593
2022-09-18T10:41:20.718Z,999.3996582
2022-09-18T10:42:22.254Z,999.3265381
2022-09-18T10:43:18.463Z,999.3451538
2022-09-18T10:45:13.707Z,999.3297119
2022-09-18T10:46:12.150Z,999.3015747
2022-09-18T10:47:06.766Z,999.3244019
2022-09-18T10:48:07.437Z,999.3183594
2022-09-18T10:49:02.883Z,999.4182739
2022-09-18T10:50:04.463Z,999.2578125
2022-09-18T10:50:57.012Z,999.2782593
2022-09-18T10:51:56.165Z,999.2803345
2022-09-18T10:52:51.819Z,999.309082
2022-09-18T10:53:51.300Z,999.2845459
2022-09-18T10:55:53.867Z,999.3520508
2022-09-18T10:55:56.100Z,999.3520508
2022-09-18T10:56:49.672Z,999.4234619
2022-09-18T10:57:43.901Z,999.3357544
2022-09-18T10:58:45.427Z,999.319519
2022-09-18T10:59:37.189Z,999.3622437
2022-09-18T11:00:38.851Z,999.2768555
2022-09-18T11:01:31.439Z,999.2527466
2022-09-18T11:02:33.148Z,999.2384644
2022-09-18T11:03:25.786Z,999.2384644
2022-09-18T11:05:21.446Z,999.2040405
2022-09-18T11:06:24.666Z,999.2143555
2022-09-18T11:07:16.916Z,999.1716309
2022-09-18T11:08:15.765Z,999.208252
2022-09-18T11:10:07.742Z,999.2143555
2022-09-18T11:11:08.955Z,999.1472168
2022-09-18T11:12:03.364Z,999.1656494
2022-09-18T11:13:00.612Z,999.1898193
2022-09-18T11:14:00.377Z,999.1981201
2022-09-18T11:15:53.071Z,999.1246948
2022-09-18T11:16:51.767Z,999.1878052
2022-09-18T11:17:51.254Z,999.1531372
2022-09-18T11:18:48.705Z,999.2061157
2022-09-18T11:19:40.663Z,999.1101685
2022-09-18T11:20:47.802Z,999.1264038
2022-09-18T11:21:39.685Z,999.0814209
2022-09-18T11:22:40.424Z,999.0976563
2022-09-18T11:23:34.863Z,999.0794678
2022-09-18T11:24:31.532Z,999.1668091
2022-09-18T11:25:33.471Z,999.1323242
2022-09-18T11:26:25.868Z,999.2196655
2022-09-18T11:27:50.390Z,999.1138916
2022-09-18T11:28:30.156Z,999.1810303
2022-09-18T11:29:28.106Z,999.1479492
2022-09-18T11:30:28.030Z,999.1479492
2022-09-18T11:31:24.445Z,999.0788574
2022-09-18T11:32:23.807Z,999.0890503
2022-09-18T11:33:21.737Z,999.1135864
2022-09-18T11:35:15.586Z,999.1112671
2022-09-18T11:36:16.580Z,999.1112671
2022-09-18T11:37:12.012Z,999.1112671
2022-09-18T11:38:12.641Z,999.15625
2022-09-18T11:39:07.954Z,999.1400146
2022-09-18T11:40:08.200Z,999.0421143
2022-09-18T11:41:04.440Z,999.1135864
2022-09-18T11:42:07.162Z,999.0890503
2022-09-18T11:42:59.895Z,999.0788574
2022-09-18T11:43:59.000Z,999.0870361
2022-09-18T11:45:53.634Z,999.0583496
2022-09-18T11:46:54.443Z,999.0702515
2022-09-18T11:47:50.093Z,999.157959
2022-09-18T11:48:49.998Z,999.0804443
2022-09-18T11:50:45.783Z,999.1069336
2022-09-18T11:51:44.054Z,999.1598511
2022-09-18T11:52:43.033Z,999.0990601
2022-09-18T11:53:44.494Z,999.1231079
2022-09-18T11:54:42.905Z,999.0357666
2022-09-18T11:55:38.425Z,999.0437622